Wheatfield, New York
Current Conditions -  °F | °C
As of 2:53 AM on Friday 24 Oct 2014 (Local Time) from KIAG Reporting Station
Clear Clear  
Wind Chill: 39°   Ceiling: Unl
Heat Index: 44°   Visibility: 10mi
Dew Point: 41°   Wind: 10mph
Humidity: 89%   Direction: 300°WNW
Pressure: 30.02"   Gusts: NA
Location:  43.1007°N, 78.9485°W
Report Text: KIAG 240653Z AUTO 30009KT 10SM CLR 07/05 A3002 RMK AO2 SLP172 T00670050
Loading
Personal Weather Stations






























Interactive Weather Map New forecast layout! Learn more

10-Day Weather Forecast

Advertisements
Track Severe Weather on mobile